This is the latest recevied weather packets stored in our database for station/object W8RSN-13. If no packets are shown the sender has not sent any weather packets the latest 10 day(s).
| Time | Temp. | Humidity | Pressure | Rain* | Wind** | Luminosity | Snow |
|---|---|---|---|---|---|---|---|
| 1787492305 | 21.67° C | 51% | 1014.7 hPa | - | - | - | - |
| 1787492004 | 22.22° C | 53% | 1014.7 hPa | - | - | - | - |
| 1787491704 | 22.78° C | 48% | 1014.8 hPa | - | - | - | - |
| 1787491402 | 22.78° C | 46% | 1014.7 hPa | - | - | - | - |
| 1787491102 | 22.78° C | 46% | 1014.9 hPa | - | - | - | - |
| 1787490801 | 22.78° C | 46% | 1014.6 hPa | - | - | - | - |
| 1787490500 | 22.78° C | 46% | 1014.6 hPa | - | - | - | - |
| 1787490199 | 22.78° C | 46% | 1014.5 hPa | - | - | - | - |
| 1787489898 | 21.67° C | 48% | 1014.8 hPa | - | - | - | - |
| 1787489597 | 21.67° C | 50% | 1014.7 hPa | - | - | - | - |
| 1787489296 | 21.67° C | 51% | 1014.8 hPa | - | - | - | - |
| 1787489015 | 22.22° C | 50% | 1014.6 hPa | - | - | - | - |
| 1787488714 | 22.22° C | 49% | 1014.6 hPa | - | - | - | - |
| 1787488414 | 21.67° C | 49% | 1014.7 hPa | - | - | - | - |
| 1787488113 | 21.67° C | 49% | 1014.7 hPa | - | - | - | - |
| 1787487812 | 22.22° C | 48% | 1014.5 hPa | - | - | - | - |
| 1787487511 | 22.22° C | 48% | 1014.5 hPa | - | - | - | - |
| 1787487210 | 22.22° C | 47% | 1014.5 hPa | - | - | - | - |
| 1787486910 | 22.22° C | 47% | 1014.7 hPa | - | - | - | - |
| 1787486608 | 21.67° C | 49% | 1014.8 hPa | - | - | - | - |
| 1787486307 | 22.22° C | 48% | 1014.6 hPa | - | - | - | - |
| 1787486006 | 22.78° C | 46% | 1014.5 hPa | - | - | - | - |
| 1787485706 | 22.78° C | 46% | 1014.6 hPa | - | - | - | - |
| 1787485405 | 22.78° C | 46% | 1014.4 hPa | - | - | - | - |
| 1787485103 | 22.22° C | 46% | 1014.5 hPa | - | - | - | - |
* Rain since midnight (hover to see other rain measurements)
** Current wind speed in m/s (hover to see current wind gust speed)